createdAt,value
2022-07-26T00:00:49.289Z,2.53
2022-07-26T00:03:53.217Z,2.78
2022-07-26T00:06:56.646Z,2.38
2022-07-26T00:10:00.084Z,2.58
2022-07-26T00:13:04.921Z,2.10
2022-07-26T00:16:09.076Z,2.10
2022-07-26T00:19:12.472Z,1.77
2022-07-26T00:22:33.826Z,2.17
2022-07-26T00:25:37.635Z,2.00
2022-07-26T00:28:42.436Z,2.38
2022-07-26T00:31:45.926Z,1.80
2022-07-26T00:34:49.527Z,2.00
2022-07-26T00:37:52.825Z,2.50
2022-07-26T00:40:56.299Z,2.17
2022-07-26T00:44:01.817Z,1.88
2022-07-26T00:47:05.540Z,1.92
2022-07-26T00:50:13.585Z,2.47
2022-07-26T00:53:20.443Z,2.40
2022-07-26T00:56:24.120Z,2.03
2022-07-26T00:59:29.988Z,2.17
2022-07-26T01:02:33.492Z,2.03
2022-07-26T01:05:36.984Z,2.03
2022-07-26T01:08:40.377Z,2.45
2022-07-26T01:11:44.111Z,2.00
2022-07-26T01:14:49.076Z,2.13
2022-07-26T01:17:55.603Z,2.03
2022-07-26T01:21:13.239Z,1.90
2022-07-26T01:24:20.304Z,2.40
2022-07-26T01:27:23.583Z,2.08
2022-07-26T01:30:27.168Z,2.27
2022-07-26T01:33:30.595Z,2.17
2022-07-26T01:36:34.177Z,2.22
2022-07-26T01:39:38.940Z,2.25
2022-07-26T01:42:42.608Z,1.90
2022-07-26T01:45:46.516Z,2.00
2022-07-26T01:48:49.917Z,2.13
2022-07-26T01:51:53.316Z,2.23
2022-07-26T01:54:57.996Z,2.40
2022-07-26T01:58:01.380Z,1.90
2022-07-26T02:01:04.816Z,2.73
2022-07-26T02:04:08.915Z,2.25
2022-07-26T02:07:13.401Z,1.92
2022-07-26T02:10:19.039Z,2.08
2022-07-26T02:13:22.350Z,2.30
2022-07-26T02:16:25.723Z,2.40
2022-07-26T02:19:30.314Z,2.40
2022-07-26T02:22:33.665Z,2.17
2022-07-26T02:25:38.344Z,2.67
2022-07-26T02:28:41.916Z,2.67
2022-07-26T02:31:48.290Z,2.47
2022-07-26T02:34:52.433Z,2.30
2022-07-26T02:37:55.806Z,2.37
2022-07-26T02:41:00.665Z,2.15
2022-07-26T02:44:04.121Z,2.90
2022-07-26T02:47:07.710Z,2.15
2022-07-26T02:50:11.458Z,2.10
2022-07-26T02:53:17.177Z,2.70
2022-07-26T02:56:22.538Z,2.30
2022-07-26T02:59:26.050Z,2.35
2022-07-26T03:02:30.408Z,2.03
2022-07-26T03:05:33.957Z,2.10
2022-07-26T03:08:37.199Z,2.17
2022-07-26T03:11:41.881Z,1.90
2022-07-26T03:14:45.760Z,2.10
2022-07-26T03:17:50.065Z,2.10
2022-07-26T03:20:53.417Z,1.95
2022-07-26T03:23:56.776Z,2.07
2022-07-26T03:27:01.560Z,2.10
2022-07-26T03:30:06.167Z,1.77
2022-07-26T03:33:09.498Z,1.73
2022-07-26T03:36:15.594Z,2.27
2022-07-26T03:39:19.486Z,1.85
2022-07-26T03:42:24.458Z,1.95
2022-07-26T03:45:28.314Z,1.77
2022-07-26T03:48:32.621Z,1.80
2022-07-26T03:51:38.600Z,1.67
2022-07-26T03:54:42.428Z,2.00
2022-07-26T03:57:46.183Z,1.95
2022-07-26T04:00:49.559Z,1.85
2022-07-26T04:03:53.313Z,2.20
2022-07-26T04:06:57.621Z,1.98
2022-07-26T04:10:08.354Z,1.90
2022-07-26T04:13:12.998Z,2.20
2022-07-26T04:16:16.497Z,2.08
2022-07-26T04:19:19.898Z,2.20
2022-07-26T04:22:23.251Z,2.00
2022-07-26T04:25:26.946Z,2.22
2022-07-26T04:28:44.664Z,2.15
2022-07-26T04:31:47.911Z,2.03
2022-07-26T04:34:51.371Z,2.13
2022-07-26T04:37:54.745Z,2.10
2022-07-26T04:40:58.619Z,1.85
2022-07-26T04:44:03.344Z,2.25
2022-07-26T04:47:07.076Z,2.20
2022-07-26T04:50:12.238Z,2.13
2022-07-26T04:53:18.425Z,2.28
2022-07-26T04:56:21.760Z,2.55
2022-07-26T04:59:26.556Z,2.38
2022-07-26T05:02:30.413Z,2.20
2022-07-26T05:05:34.912Z,2.03
2022-07-26T05:08:38.215Z,2.00
2022-07-26T05:11:41.544Z,2.05
2022-07-26T05:14:46.333Z,2.80
2022-07-26T05:17:49.688Z,2.67
2022-07-26T05:20:53.573Z,2.55
2022-07-26T05:23:57.338Z,3.17
2022-07-26T05:27:00.680Z,2.28
2022-07-26T05:30:06.078Z,2.25
2022-07-26T05:33:09.723Z,1.80
2022-07-26T05:36:13.984Z,1.50
2022-07-26T05:39:17.335Z,1.42
2022-07-26T05:42:20.771Z,1.38
2022-07-26T05:45:25.566Z,1.45
2022-07-26T05:48:28.937Z,1.42
2022-07-26T05:51:33.823Z,1.15
2022-07-26T05:54:38.056Z,1.77
2022-07-26T05:57:42.032Z,1.60
2022-07-26T06:03:52.122Z,1.60
2022-07-26T06:06:56.305Z,1.60
2022-07-26T06:13:02.939Z,1.25
2022-07-26T06:16:08.672Z,1.73
2022-07-26T06:19:12.365Z,1.70
2022-07-26T06:22:15.892Z,1.83
2022-07-26T06:25:19.658Z,1.60
2022-07-26T06:28:23.167Z,1.42
2022-07-26T06:31:27.984Z,1.00
2022-07-26T06:34:31.451Z,1.35
2022-07-26T06:37:38.311Z,0.80
2022-07-26T06:40:42.346Z,1.08
2022-07-26T06:46:50.218Z,0.85
2022-07-26T06:49:54.600Z,0.93
2022-07-26T06:52:57.956Z,0.90
2022-07-26T06:56:01.357Z,0.80
2022-07-26T06:59:09.303Z,0.75
2022-07-26T07:02:14.293Z,0.80
2022-07-26T07:05:17.896Z,0.60
2022-07-26T07:08:23.262Z,0.38
2022-07-26T07:11:26.796Z,0.57
2022-07-26T07:14:32.133Z,0.68
2022-07-26T07:17:36.924Z,0.70
2022-07-26T07:20:40.758Z,0.93
2022-07-26T07:23:46.325Z,0.77
2022-07-26T07:26:49.649Z,1.02
2022-07-26T07:29:54.623Z,0.60
2022-07-26T07:33:00.815Z,0.52
2022-07-26T07:36:07.216Z,0.68
2022-07-26T07:39:15.548Z,0.75
2022-07-26T07:42:23.429Z,0.65
2022-07-26T07:45:27.003Z,0.73
2022-07-26T07:48:32.116Z,0.93
2022-07-26T07:51:36.359Z,0.68
2022-07-26T07:54:40.066Z,0.40
2022-07-26T07:57:46.499Z,0.65
2022-07-26T08:00:50.928Z,0.77
2022-07-26T08:03:55.859Z,0.90
2022-07-26T08:06:59.312Z,0.60
2022-07-26T08:10:02.837Z,0.60
2022-07-26T08:13:06.342Z,0.63
2022-07-26T08:19:15.716Z,0.75
2022-07-26T08:22:19.412Z,0.50
2022-07-26T08:25:24.528Z,0.70
2022-07-26T08:31:53.041Z,0.90
2022-07-26T08:35:17.934Z,0.30
2022-07-26T08:38:21.185Z,0.80
2022-07-26T08:41:25.014Z,0.60
2022-07-26T08:44:29.092Z,0.80
2022-07-26T08:50:49.006Z,0.60
2022-07-26T08:54:04.198Z,0.40
2022-07-26T08:57:08.960Z,0.60
2022-07-26T09:00:18.096Z,0.60
2022-07-26T09:03:27.004Z,0.40
2022-07-26T09:06:31.935Z,0.60
2022-07-26T09:09:38.915Z,0.82
2022-07-26T09:12:44.087Z,0.30
2022-07-26T09:15:47.604Z,0.40
2022-07-26T09:18:51.070Z,0.32
2022-07-26T09:21:57.903Z,0.40
2022-07-26T09:25:01.669Z,0.45
2022-07-26T09:28:22.997Z,0.43
2022-07-26T09:31:26.337Z,0.25
2022-07-26T09:34:29.968Z,0.30
2022-07-26T09:37:40.660Z,0.57
2022-07-26T09:40:50.366Z,0.50
2022-07-26T09:43:58.736Z,0.40
2022-07-26T09:47:02.251Z,0.47
2022-07-26T09:50:16.798Z,0.38
2022-07-26T09:53:23.559Z,0.38
2022-07-26T09:56:44.660Z,0.40
2022-07-26T09:59:49.848Z,0.45
2022-07-26T10:02:53.947Z,0.47
2022-07-26T10:05:58.574Z,0.50
2022-07-26T10:09:06.016Z,0.28
2022-07-26T10:12:14.473Z,0.30
2022-07-26T10:15:41.534Z,0.38
2022-07-26T10:18:50.124Z,0.50
2022-07-26T10:22:24.674Z,0.50
2022-07-26T10:25:49.797Z,0.40
2022-07-26T10:28:53.100Z,0.68
2022-07-26T10:32:21.482Z,0.55
2022-07-26T10:35:40.865Z,0.60
2022-07-26T10:39:04.421Z,0.50
2022-07-26T10:42:12.178Z,0.68
2022-07-26T10:45:23.051Z,1.00
2022-07-26T10:48:26.562Z,0.60
2022-07-26T10:51:34.803Z,0.70
2022-07-26T10:55:18.573Z,0.75
2022-07-26T10:58:24.494Z,0.85
2022-07-26T11:01:35.654Z,0.63
2022-07-26T11:04:39.298Z,0.70
2022-07-26T11:07:56.798Z,0.60
2022-07-26T11:11:00.159Z,0.57
2022-07-26T11:14:11.765Z,0.80
2022-07-26T11:17:27.390Z,0.40
2022-07-26T11:20:30.912Z,0.40
2022-07-26T11:23:37.055Z,0.95
2022-07-26T11:26:44.681Z,0.50
2022-07-26T11:29:50.258Z,0.40
2022-07-26T11:32:54.713Z,0.40
2022-07-26T11:35:58.062Z,0.93
2022-07-26T11:39:02.819Z,0.52
2022-07-26T11:42:09.516Z,0.73
2022-07-26T11:45:14.819Z,0.80
2022-07-26T11:48:20.349Z,0.35
2022-07-26T11:51:26.684Z,0.70
2022-07-26T11:54:32.937Z,0.50
2022-07-26T11:57:36.464Z,0.73
2022-07-26T12:00:41.359Z,0.50
2022-07-26T12:03:47.391Z,0.50
2022-07-26T12:06:51.560Z,1.00
2022-07-26T12:09:55.165Z,0.68
2022-07-26T12:13:13.309Z,0.40
2022-07-26T12:19:56.569Z,0.75
2022-07-26T12:23:05.919Z,0.60
2022-07-26T12:26:24.608Z,0.55
2022-07-26T12:29:34.195Z,0.82
2022-07-26T12:32:41.179Z,0.40
2022-07-26T12:35:45.923Z,0.65
2022-07-26T12:38:49.534Z,0.50
2022-07-26T12:41:54.119Z,0.57
2022-07-26T12:44:59.234Z,0.82
2022-07-26T12:48:07.801Z,0.40
2022-07-26T12:51:13.002Z,0.88
2022-07-26T12:54:16.675Z,0.47
2022-07-26T12:57:21.074Z,0.25
2022-07-26T13:00:25.318Z,0.50
2022-07-26T13:03:29.692Z,0.40
2022-07-26T13:09:38.815Z,0.32
2022-07-26T13:15:48.120Z,0.52
2022-07-26T13:18:52.136Z,0.57
2022-07-26T13:25:00.841Z,0.40
2022-07-26T13:28:11.749Z,0.43
2022-07-26T13:31:16.370Z,0.43
2022-07-26T13:34:20.084Z,0.63
2022-07-26T13:37:25.613Z,0.45
2022-07-26T13:40:31.847Z,0.55
2022-07-26T13:43:37.011Z,0.60
2022-07-26T13:46:40.442Z,0.70
2022-07-26T13:49:44.454Z,0.70
2022-07-26T13:52:49.712Z,1.05
2022-07-26T13:55:53.320Z,0.75
2022-07-26T13:58:56.775Z,0.75
2022-07-26T14:02:00.329Z,0.85
2022-07-26T14:05:03.938Z,0.50
2022-07-26T14:08:08.939Z,0.80
2022-07-26T14:11:12.348Z,1.20
2022-07-26T14:14:18.570Z,0.80
2022-07-26T14:17:22.824Z,0.68
2022-07-26T14:20:26.517Z,0.80
2022-07-26T14:23:32.750Z,0.65
2022-07-26T14:26:36.311Z,0.70
2022-07-26T14:29:40.813Z,0.70
2022-07-26T14:32:44.513Z,0.85
2022-07-26T14:35:50.108Z,0.40
2022-07-26T14:38:56.646Z,0.40
2022-07-26T14:41:59.944Z,0.63
2022-07-26T14:45:03.430Z,0.63
2022-07-26T14:48:07.674Z,0.40
2022-07-26T14:51:11.818Z,1.00
2022-07-26T14:54:18.119Z,1.23
2022-07-26T14:57:21.458Z,0.47
2022-07-26T15:00:24.759Z,0.80
2022-07-26T15:03:30.475Z,0.68
2022-07-26T15:06:34.382Z,0.88
2022-07-26T15:09:39.320Z,0.60
2022-07-26T15:12:43.455Z,0.93
2022-07-26T15:15:47.160Z,0.80
2022-07-26T15:18:51.561Z,0.55
2022-07-26T15:21:56.063Z,0.65
2022-07-26T15:25:01.337Z,0.55
2022-07-26T15:28:06.010Z,0.32
2022-07-26T15:31:14.261Z,0.52
2022-07-26T15:34:18.069Z,0.40
2022-07-26T15:37:21.506Z,0.60
2022-07-26T15:40:26.682Z,0.30
2022-07-26T15:43:44.211Z,0.63
2022-07-26T15:46:52.388Z,0.70
2022-07-26T15:49:56.142Z,0.40
2022-07-26T15:52:59.802Z,0.40
2022-07-26T15:56:04.817Z,0.40
2022-07-26T15:59:08.566Z,0.28
2022-07-26T16:02:12.387Z,0.52
2022-07-26T16:05:15.879Z,0.40
2022-07-26T16:08:19.215Z,0.52
2022-07-26T16:11:24.079Z,0.45
2022-07-26T16:14:27.854Z,0.47
2022-07-26T16:17:31.428Z,0.40
2022-07-26T16:20:35.458Z,0.40
2022-07-26T16:26:43.824Z,0.57
2022-07-26T16:29:52.167Z,0.60
2022-07-26T16:32:55.907Z,0.60
2022-07-26T16:36:02.945Z,0.77
2022-07-26T16:39:09.974Z,0.63
2022-07-26T16:42:15.183Z,0.52
2022-07-26T16:45:18.726Z,0.80
2022-07-26T16:48:22.106Z,0.70
2022-07-26T16:51:25.742Z,0.47
2022-07-26T16:54:29.189Z,0.60
2022-07-26T16:57:33.850Z,0.70
2022-07-26T17:00:38.295Z,0.60
2022-07-26T17:03:41.742Z,0.57
2022-07-26T17:07:01.589Z,0.90
2022-07-26T17:10:11.778Z,0.73
2022-07-26T17:13:16.551Z,0.90
2022-07-26T17:16:24.575Z,0.95
2022-07-26T17:19:28.680Z,0.77
2022-07-26T17:22:32.211Z,0.95
2022-07-26T17:25:35.961Z,0.90
2022-07-26T17:28:40.751Z,0.68
2022-07-26T17:31:44.428Z,0.90
2022-07-26T17:34:48.185Z,0.93
2022-07-26T17:37:55.576Z,0.63
2022-07-26T17:40:59.919Z,1.00
2022-07-26T17:44:04.924Z,1.10
2022-07-26T17:47:28.015Z,0.70
2022-07-26T17:50:37.465Z,0.70
2022-07-26T17:53:42.317Z,0.90
2022-07-26T17:56:45.841Z,0.88
2022-07-26T17:59:50.704Z,0.57
2022-07-26T18:02:54.327Z,0.70
2022-07-26T18:05:58.301Z,0.60
2022-07-26T18:09:02.348Z,1.30
2022-07-26T18:15:12.572Z,0.75
2022-07-26T18:18:16.549Z,0.80
2022-07-26T18:21:20.328Z,1.27
2022-07-26T18:24:24.172Z,1.27
2022-07-26T18:30:33.614Z,0.77
2022-07-26T18:33:37.365Z,0.95
2022-07-26T18:36:40.915Z,0.90
2022-07-26T18:39:44.500Z,1.00
2022-07-26T18:42:48.224Z,1.42
2022-07-26T18:45:53.449Z,2.10
2022-07-26T18:48:57.061Z,1.05
2022-07-26T18:52:08.461Z,1.00
2022-07-26T18:55:14.606Z,1.73
2022-07-26T18:58:18.487Z,4.63
2022-07-26T19:01:26.532Z,2.75
2022-07-26T19:04:30.686Z,1.50
2022-07-26T19:07:35.900Z,1.00
2022-07-26T19:10:39.274Z,1.23
2022-07-26T19:13:44.160Z,0.82
2022-07-26T19:16:50.535Z,0.90
2022-07-26T19:19:54.307Z,0.80
2022-07-26T19:22:57.720Z,0.77
2022-07-26T19:26:01.307Z,0.63
2022-07-26T19:29:04.746Z,0.90
2022-07-26T19:32:10.084Z,0.65
2022-07-26T19:35:13.461Z,0.80
2022-07-26T19:38:16.840Z,0.63
2022-07-26T19:41:20.813Z,0.57
2022-07-26T19:44:24.457Z,0.70
2022-07-26T19:47:30.253Z,0.70
2022-07-26T19:50:34.216Z,0.60
2022-07-26T19:53:37.737Z,0.77
2022-07-26T19:56:41.943Z,0.68
2022-07-26T19:59:45.289Z,0.88
2022-07-26T20:02:50.731Z,0.90
2022-07-26T20:05:55.944Z,0.85
2022-07-26T20:09:03.804Z,1.17
2022-07-26T20:12:11.062Z,0.70
2022-07-26T20:15:15.025Z,0.80
2022-07-26T20:18:24.845Z,2.13
2022-07-26T20:21:28.494Z,4.97
2022-07-26T20:24:33.767Z,4.20
2022-07-26T20:27:38.322Z,1.95
2022-07-26T20:30:44.098Z,4.90
2022-07-26T20:33:49.908Z,3.95
2022-07-26T20:36:54.414Z,1.63
2022-07-26T20:39:58.977Z,1.13
2022-07-26T20:43:07.222Z,0.70
2022-07-26T20:46:11.635Z,4.10
2022-07-26T20:49:17.520Z,1.73
2022-07-26T20:52:22.170Z,1.00
2022-07-26T20:55:29.632Z,1.40
2022-07-26T20:58:33.140Z,0.95
2022-07-26T21:01:37.298Z,0.50
2022-07-26T21:07:55.135Z,0.43
2022-07-26T21:11:02.490Z,0.70
2022-07-26T21:14:06.773Z,0.50
2022-07-26T21:17:12.240Z,0.80
2022-07-26T21:20:17.249Z,0.47
2022-07-26T21:23:20.703Z,0.50
2022-07-26T21:26:24.088Z,0.20
2022-07-26T21:29:30.098Z,0.70
2022-07-26T21:32:33.616Z,0.52
2022-07-26T21:35:38.407Z,0.35
2022-07-26T21:38:42.532Z,0.38
2022-07-26T21:41:46.755Z,0.30
2022-07-26T21:47:54.265Z,0.47
2022-07-26T21:50:59.093Z,0.38
2022-07-26T21:54:02.481Z,0.65
2022-07-26T21:57:07.582Z,0.57
2022-07-26T22:00:13.376Z,0.65
2022-07-26T22:03:16.871Z,0.55
2022-07-26T22:06:21.702Z,0.47
2022-07-26T22:09:24.975Z,0.57
2022-07-26T22:12:31.591Z,0.75
2022-07-26T22:15:36.089Z,0.77
2022-07-26T22:18:39.691Z,0.43
2022-07-26T22:21:44.604Z,0.65
2022-07-26T22:24:48.135Z,0.65
2022-07-26T22:27:51.821Z,0.63
2022-07-26T22:30:56.087Z,0.47
2022-07-26T22:33:59.475Z,0.47
2022-07-26T22:37:04.203Z,0.77
2022-07-26T22:40:09.639Z,0.50
2022-07-26T22:43:14.509Z,0.45
2022-07-26T22:46:18.800Z,0.43
2022-07-26T22:49:31.521Z,0.70
2022-07-26T22:52:36.597Z,0.70
2022-07-26T22:55:40.144Z,0.70
2022-07-26T22:58:43.566Z,0.60
2022-07-26T23:01:51.453Z,0.50
2022-07-26T23:04:55.275Z,0.50
2022-07-26T23:08:03.625Z,0.57
2022-07-26T23:11:07.751Z,0.70
2022-07-26T23:14:12.743Z,0.40
2022-07-26T23:17:16.157Z,0.50
2022-07-26T23:20:19.509Z,0.60
2022-07-26T23:23:29.320Z,0.60
2022-07-26T23:26:33.476Z,0.70
2022-07-26T23:29:36.957Z,0.70
2022-07-26T23:32:41.707Z,0.80
2022-07-26T23:35:45.033Z,0.73
2022-07-26T23:38:49.777Z,0.50
2022-07-26T23:41:53.001Z,0.90
2022-07-26T23:44:56.453Z,0.60
2022-07-26T23:48:01.697Z,0.93
2022-07-26T23:51:07.399Z,0.93
2022-07-26T23:54:12.047Z,0.70
2022-07-26T23:57:15.487Z,0.85
